Time;durP1;ratioP1;P1;durP2;ratioP2;P2;SDS_P1;SDS_P2;PMS_P1;PMS_P2;Temp;Humidity;BMP_temperature;BMP_pressure;BME280_temperature;BME280_humidity;BME280_pressure;Samples;Min_cycle;Max_cycle;Signal;HPM_P1;HPM_P2
2024/01/18 00:00:29;;;;;;;;;;;;;;;;;;5022117;28;20331;-72
2024/01/18 00:02:54;;;;;;;;;;;;;;;;;;5017635;28;20019;-72
2024/01/18 00:05:20;;;;;;;;;;;;;;;;;;5022393;28;21482;-72
2024/01/18 00:07:49;;;;;;;;;;;;;;;;;;5020448;28;20281;-72
2024/01/18 00:10:15;;;;;;;;;;;;;;;;;;5005174;28;19921;-72
2024/01/18 00:12:42;;;;;;;;;;;;;;;;;;5017457;28;21069;-73
2024/01/18 00:15:07;;;;;;;;;;;;;;;;;;5018673;28;20082;-73
2024/01/18 00:17:33;;;;;;;;;;;;;;;;;;5020492;28;19917;-72
2024/01/18 00:19:58;;;;;;;;;;;;;;;;;;5020744;28;20066;-71
2024/01/18 00:22:23;;;;;;;;;;;;;;;;;;5002313;28;20217;-72
2024/01/18 00:24:49;;;;;;;;;;;;;;;;;;5021002;28;19917;-71
2024/01/18 00:27:14;;;;;;;;;;;;;;;;;;5002369;28;19944;-71
2024/01/18 00:29:39;;;;;;;;;;;;;;;;;;5036785;28;20018;-71
2024/01/18 00:32:05;;;;;;;;;;;;;;;;;;5020614;28;19920;-72
2024/01/18 00:34:30;;;;;;;;;;;;;;;;;;5021739;28;19932;-71
2024/01/18 00:37:00;;;;;;;;;;;;;;;;;;5019948;28;19935;-71
2024/01/18 00:39:26;;;;;;;;;;;;;;;;;;5023470;28;19928;-72
2024/01/18 00:41:51;;;;;;;;;;;;;;;;;;5021112;28;19921;-71
2024/01/18 00:44:19;;;;;;;;;;;;;;;;;;5020218;28;19917;-72
2024/01/18 00:46:44;;;;;;;;;;;;;;;;;;5037868;28;20811;-72
2024/01/18 00:49:12;;;;;;;;;;;;;;;;;;5019541;28;19956;-71
2024/01/18 00:51:40;;;;;;;;;;;;;;;;;;5021346;28;20015;-73
2024/01/18 00:54:05;;;;;;;;;;;;;;;;;;5036618;28;19947;-73
2024/01/18 00:56:31;;;;;;;;;;;;;;;;;;5020686;28;19921;-73
2024/01/18 00:58:56;;;;;;;;;;;;;;;;;;5020863;28;19917;-73
2024/01/18 01:01:22;;;;;;;;;;;;;;;;;;5019447;28;19940;-73
2024/01/18 01:03:47;;;;;;;;;;;;;;;;;;5002209;28;19921;-73
2024/01/18 01:06:16;;;;;;;;;;;;;;;;;;5020188;28;20368;-72
2024/01/18 01:08:42;;;;;;;;;;;;;;;;;;5005911;28;19917;-72
2024/01/18 01:11:10;;;;;;;;;;;;;;;;;;5019870;28;20006;-72
2024/01/18 01:13:35;;;;;;;;;;;;;;;;;;5018306;28;19921;-72
2024/01/18 01:16:01;;;;;;;;;;;;;;;;;;5018187;28;19975;-72
2024/01/18 01:18:26;;;;;;;;;;;;;;;;;;5018365;28;19921;-71
2024/01/18 01:20:51;;;;;;;;;;;;;;;;;;5017688;28;19951;-73
2024/01/18 01:23:17;;;;;;;;;;;;;;;;;;5020027;28;20307;-72
2024/01/18 01:25:42;;;;;;;;;;;;;;;;;;5051007;28;20281;-72
2024/01/18 01:28:07;;;;;;;;;;;;;;;;;;5037259;28;20023;-72
2024/01/18 01:30:33;;;;;;;;;;;;;;;;;;5017434;28;19921;-71
2024/01/18 01:32:58;;;;;;;;;;;;;;;;;;5019511;28;19970;-72
2024/01/18 01:35:24;;;;;;;;;;;;;;;;;;5018392;28;19963;-71
2024/01/18 01:37:49;;;;;;;;;;;;;;;;;;5049616;28;19924;-72
2024/01/18 01:40:14;;;;;;;;;;;;;;;;;;5021253;28;20001;-71
2024/01/18 01:42:40;;;;;;;;;;;;;;;;;;5020113;28;19917;-72
2024/01/18 01:45:08;;;;;;;;;;;;;;;;;;5019052;28;20613;-72
2024/01/18 01:47:33;;;;;;;;;;;;;;;;;;5018877;28;20120;-72
2024/01/18 01:49:59;;;;;;;;;;;;;;;;;;5019193;28;19927;-71
2024/01/18 01:52:24;;;;;;;;;;;;;;;;;;5002976;28;19932;-72
2024/01/18 01:55:12;;;;;;;;;;;;;;;;;;5018783;28;19975;-71
2024/01/18 01:57:35;;;;;;;;;;;;;;;;;;5019609;28;19921;-72
2024/01/18 02:00:01;;;;;;;;;;;;;;;;;;5035612;28;19940;-72
2024/01/18 02:02:26;;;;;;;;;;;;;;;;;;5020373;28;20003;-70
2024/01/18 02:04:51;;;;;;;;;;;;;;;;;;5017954;28;19921;-71
2024/01/18 02:07:17;;;;;;;;;;;;;;;;;;5018419;28;19920;-71
2024/01/18 02:09:43;;;;;;;;;;;;;;;;;;5016376;28;19962;-71
2024/01/18 02:12:11;;;;;;;;;;;;;;;;;;5034612;28;19917;-71
2024/01/18 02:14:36;;;;;;;;;;;;;;;;;;4998993;28;20134;-71
2024/01/18 02:17:03;;;;;;;;;;;;;;;;;;5022065;28;19925;-71
2024/01/18 02:19:29;;;;;;;;;;;;;;;;;;5017636;28;20319;-71
2024/01/18 02:21:54;;;;;;;;;;;;;;;;;;5016969;28;20001;-72
2024/01/18 02:24:19;;;;;;;;;;;;;;;;;;5019339;28;19940;-72
2024/01/18 02:26:45;;;;;;;;;;;;;;;;;;5014094;28;20407;-72
2024/01/18 02:29:10;;;;;;;;;;;;;;;;;;5018060;28;19970;-72
2024/01/18 02:31:36;;;;;;;;;;;;;;;;;;5017746;28;21428;-72
2024/01/18 02:34:01;;;;;;;;;;;;;;;;;;5018065;28;19936;-72
2024/01/18 02:36:27;;;;;;;;;;;;;;;;;;5030101;28;19928;-71
2024/01/18 02:38:52;;;;;;;;;;;;;;;;;;5001892;28;20269;-72
2024/01/18 02:41:17;;;;;;;;;;;;;;;;;;5019459;28;20011;-72
2024/01/18 02:43:43;;;;;;;;;;;;;;;;;;5019413;28;20454;-71
2024/01/18 02:46:08;;;;;;;;;;;;;;;;;;5000288;28;19974;-72
2024/01/18 02:48:34;;;;;;;;;;;;;;;;;;5032225;28;20282;-72
2024/01/18 02:50:59;;;;;;;;;;;;;;;;;;5019471;28;20064;-73
2024/01/18 02:53:24;;;;;;;;;;;;;;;;;;5019446;28;19979;-73
2024/01/18 02:55:50;;;;;;;;;;;;;;;;;;5003975;28;19928;-73
2024/01/18 02:58:15;;;;;;;;;;;;;;;;;;5016433;28;19958;-72
2024/01/18 03:00:40;;;;;;;;;;;;;;;;;;5052034;28;19967;-73
2024/01/18 03:03:08;;;;;;;;;;;;;;;;;;5023813;28;20009;-72
2024/01/18 03:05:34;;;;;;;;;;;;;;;;;;5018988;28;19960;-72
2024/01/18 03:07:59;;;;;;;;;;;;;;;;;;5023851;28;19932;-72
2024/01/18 03:10:24;;;;;;;;;;;;;;;;;;5022238;28;19921;-72
2024/01/18 03:12:50;;;;;;;;;;;;;;;;;;5018424;28;20063;-71
2024/01/18 03:21:47;;;;;;;;;;;;;;;;;;5021080;28;19924;-72
2024/01/18 03:24:13;;;;;;;;;;;;;;;;;;5034827;28;19916;-71
2024/01/18 03:26:39;;;;;;;;;;;;;;;;;;5019742;28;20327;-71
2024/01/18 03:29:07;;;;;;;;;;;;;;;;;;5019734;28;19921;-72
2024/01/18 03:31:34;;;;;;;;;;;;;;;;;;5020678;28;20284;-71
2024/01/18 03:34:00;;;;;;;;;;;;;;;;;;5030497;28;19917;-71
2024/01/18 03:36:25;;;;;;;;;;;;;;;;;;5051598;28;19927;-71
2024/01/18 03:38:50;;;;;;;;;;;;;;;;;;5019917;28;19959;-72
2024/01/18 03:41:16;;;;;;;;;;;;;;;;;;5019258;28;20350;-71
2024/01/18 03:43:41;;;;;;;;;;;;;;;;;;5018706;28;20014;-71
2024/01/18 03:46:07;;;;;;;;;;;;;;;;;;5021905;28;19986;-70
2024/01/18 03:48:33;;;;;;;;;;;;;;;;;;5017634;28;20021;-71
2024/01/18 03:50:58;;;;;;;;;;;;;;;;;;5023341;28;20011;-69
2024/01/18 03:53:24;;;;;;;;;;;;;;;;;;5037128;28;19979;-70
2024/01/18 03:55:52;;;;;;;;;;;;;;;;;;5018775;28;20016;-70
2024/01/18 03:58:18;;;;;;;;;;;;;;;;;;5016226;28;20597;-69
2024/01/18 04:00:43;;;;;;;;;;;;;;;;;;5002599;28;19925;-69
2024/01/18 04:03:08;;;;;;;;;;;;;;;;;;5035981;28;19928;-70
2024/01/18 04:05:34;;;;;;;;;;;;;;;;;;5017743;28;19917;-70
2024/01/18 04:08:01;;;;;;;;;;;;;;;;;;5036655;28;20326;-69
2024/01/18 04:10:27;;;;;;;;;;;;;;;;;;5020844;28;19922;-69
2024/01/18 04:12:55;;;;;;;;;;;;;;;;;;5019243;28;19995;-70
2024/01/18 04:15:20;;;;;;;;;;;;;;;;;;5016690;28;20386;-70
2024/01/18 04:17:46;;;;;;;;;;;;;;;;;;5034165;28;19929;-71
2024/01/18 04:20:15;;;;;;;;;;;;;;;;;;5034926;28;19980;-72
2024/01/18 04:22:40;;;;;;;;;;;;;;;;;;5021948;28;20007;-71
2024/01/18 04:25:06;;;;;;;;;;;;;;;;;;5017264;28;19923;-70
2024/01/18 04:27:31;;;;;;;;;;;;;;;;;;5018578;28;19932;-70
2024/01/18 04:29:56;;;;;;;;;;;;;;;;;;5015692;28;19980;-70
2024/01/18 04:32:22;;;;;;;;;;;;;;;;;;5021136;28;20002;-71
2024/01/18 04:34:47;;;;;;;;;;;;;;;;;;5036164;28;20534;-71
2024/01/18 04:37:12;;;;;;;;;;;;;;;;;;5001604;28;19928;-71
2024/01/18 04:39:40;;;;;;;;;;;;;;;;;;5012984;28;19943;-71
2024/01/18 04:42:05;;;;;;;;;;;;;;;;;;5029589;28;19917;-71
2024/01/18 04:44:30;;;;;;;;;;;;;;;;;;5016905;28;19971;-71
2024/01/18 04:46:56;;;;;;;;;;;;;;;;;;5034378;28;19921;-72
2024/01/18 04:49:21;;;;;;;;;;;;;;;;;;5016592;28;19921;-72
2024/01/18 04:51:46;;;;;;;;;;;;;;;;;;5019150;28;19940;-71
2024/01/18 04:54:12;;;;;;;;;;;;;;;;;;5034792;28;19963;-71
2024/01/18 04:56:37;;;;;;;;;;;;;;;;;;5018803;28;19922;-71
2024/01/18 04:59:03;;;;;;;;;;;;;;;;;;5015732;28;19979;-71
2024/01/18 05:01:28;;;;;;;;;;;;;;;;;;5018980;28;20007;-71
2024/01/18 05:03:53;;;;;;;;;;;;;;;;;;5034342;28;19922;-72
2024/01/18 05:06:19;;;;;;;;;;;;;;;;;;5032488;28;20249;-73
2024/01/18 05:08:45;;;;;;;;;;;;;;;;;;5014267;28;20450;-72
2024/01/18 05:11:10;;;;;;;;;;;;;;;;;;5052194;28;19924;-71
2024/01/18 05:13:36;;;;;;;;;;;;;;;;;;5016665;28;19986;-72
2024/01/18 05:16:01;;;;;;;;;;;;;;;;;;5019993;28;20320;-71
2024/01/18 05:18:27;;;;;;;;;;;;;;;;;;5023186;28;20283;-72
2024/01/18 05:20:55;;;;;;;;;;;;;;;;;;5034109;28;20318;-72
2024/01/18 05:23:22;;;;;;;;;;;;;;;;;;5018698;28;20324;-72
2024/01/18 05:25:48;;;;;;;;;;;;;;;;;;5020168;28;19917;-72
2024/01/18 05:28:13;;;;;;;;;;;;;;;;;;5017910;28;20354;-71
2024/01/18 05:30:39;;;;;;;;;;;;;;;;;;5011027;28;19917;-72
2024/01/18 05:33:04;;;;;;;;;;;;;;;;;;5036419;28;19925;-72
2024/01/18 05:35:30;;;;;;;;;;;;;;;;;;5020660;28;20363;-71
2024/01/18 05:37:57;;;;;;;;;;;;;;;;;;5035199;28;20209;-71
2024/01/18 05:40:23;;;;;;;;;;;;;;;;;;5018992;28;19968;-70
2024/01/18 05:42:48;;;;;;;;;;;;;;;;;;5018171;28;20467;-72
2024/01/18 05:45:13;;;;;;;;;;;;;;;;;;5018807;28;19928;-72
2024/01/18 05:47:41;;;;;;;;;;;;;;;;;;5021825;28;19946;-72
2024/01/18 05:50:07;;;;;;;;;;;;;;;;;;5019950;28;19917;-72
2024/01/18 05:52:32;;;;;;;;;;;;;;;;;;5017099;28;20399;-72
2024/01/18 05:54:58;;;;;;;;;;;;;;;;;;5020431;28;20352;-72
2024/01/18 05:57:27;;;;;;;;;;;;;;;;;;5035594;28;19921;-70
2024/01/18 05:59:54;;;;;;;;;;;;;;;;;;5032572;28;19928;-72
2024/01/18 06:02:20;;;;;;;;;;;;;;;;;;5018157;28;19943;-71
2024/01/18 06:04:48;;;;;;;;;;;;;;;;;;5023527;28;19913;-72
2024/01/18 06:07:13;;;;;;;;;;;;;;;;;;5021387;28;20311;-72
2024/01/18 06:09:38;;;;;;;;;;;;;;;;;;5020934;28;19976;-72
2024/01/18 06:12:04;;;;;;;;;;;;;;;;;;5021179;28;20584;-73
2024/01/18 06:14:29;;;;;;;;;;;;;;;;;;5021038;28;20051;-73
2024/01/18 06:16:54;;;;;;;;;;;;;;;;;;5021121;28;19913;-74
2024/01/18 06:19:20;;;;;;;;;;;;;;;;;;5021177;28;19916;-72
2024/01/18 06:21:45;;;;;;;;;;;;;;;;;;5023428;28;19978;-73
2024/01/18 06:24:13;;;;;;;;;;;;;;;;;;5036169;28;19917;-73
2024/01/18 06:26:38;;;;;;;;;;;;;;;;;;5002705;28;20229;-73
2024/01/18 06:29:04;;;;;;;;;;;;;;;;;;5021564;28;19923;-75
2024/01/18 06:31:31;;;;;;;;;;;;;;;;;;5020642;28;19921;-73
2024/01/18 06:33:57;;;;;;;;;;;;;;;;;;5019195;28;20404;-73
2024/01/18 06:36:22;;;;;;;;;;;;;;;;;;5037131;28;19921;-73
2024/01/18 06:38:48;;;;;;;;;;;;;;;;;;5021748;28;20620;-74
2024/01/18 06:41:14;;;;;;;;;;;;;;;;;;5019370;28;20028;-73
2024/01/18 06:43:41;;;;;;;;;;;;;;;;;;5021566;28;20314;-72
2024/01/18 06:46:12;;;;;;;;;;;;;;;;;;5019253;28;19921;-73
2024/01/18 06:48:37;;;;;;;;;;;;;;;;;;5020156;28;19921;-73
2024/01/18 06:51:02;;;;;;;;;;;;;;;;;;5018667;28;19917;-75
2024/01/18 06:53:31;;;;;;;;;;;;;;;;;;5020606;28;19933;-73
2024/01/18 06:55:59;;;;;;;;;;;;;;;;;;5035980;28;19917;-72
2024/01/18 06:58:25;;;;;;;;;;;;;;;;;;5023211;28;19963;-73
2024/01/18 07:00:53;;;;;;;;;;;;;;;;;;5019519;28;19923;-73
2024/01/18 07:03:18;;;;;;;;;;;;;;;;;;5021335;28;19921;-73
2024/01/18 07:05:44;;;;;;;;;;;;;;;;;;5017560;28;19925;-74
2024/01/18 07:08:10;;;;;;;;;;;;;;;;;;5002203;28;19936;-73
2024/01/18 07:10:35;;;;;;;;;;;;;;;;;;5051256;28;19992;-72
2024/01/18 07:13:01;;;;;;;;;;;;;;;;;;5021708;28;21556;-75
2024/01/18 07:15:26;;;;;;;;;;;;;;;;;;5000653;28;20561;-74
2024/01/18 07:17:54;;;;;;;;;;;;;;;;;;5019360;28;20399;-74
2024/01/18 07:20:19;;;;;;;;;;;;;;;;;;5021997;28;19921;-73
2024/01/18 07:22:47;;;;;;;;;;;;;;;;;;5020484;28;19929;-73
2024/01/18 07:25:13;;;;;;;;;;;;;;;;;;5020500;28;19919;-73
2024/01/18 07:27:38;;;;;;;;;;;;;;;;;;5018646;28;20627;-74
2024/01/18 07:30:06;;;;;;;;;;;;;;;;;;5018846;28;19923;-74
2024/01/18 07:32:33;;;;;;;;;;;;;;;;;;5021271;28;19960;-73
2024/01/18 07:35:00;;;;;;;;;;;;;;;;;;5013255;28;19924;-75
2024/01/18 07:37:28;;;;;;;;;;;;;;;;;;5023984;28;19921;-75
2024/01/18 07:39:53;;;;;;;;;;;;;;;;;;5022682;28;19917;-74
2024/01/18 07:42:19;;;;;;;;;;;;;;;;;;5024676;28;19927;-74
2024/01/18 07:44:46;;;;;;;;;;;;;;;;;;5023160;28;19913;-73
2024/01/18 07:47:11;;;;;;;;;;;;;;;;;;5041173;28;20243;-74
2024/01/18 07:49:37;;;;;;;;;;;;;;;;;;5022477;28;20211;-74
2024/01/18 07:52:03;;;;;;;;;;;;;;;;;;5023166;28;19991;-76
2024/01/18 07:54:31;;;;;;;;;;;;;;;;;;5026589;28;20364;-74
2024/01/18 07:56:56;;;;;;;;;;;;;;;;;;5022270;28;20384;-74
2024/01/18 07:59:22;;;;;;;;;;;;;;;;;;5025365;28;20035;-74
2024/01/18 08:01:50;;;;;;;;;;;;;;;;;;5020478;28;20059;-73
2024/01/18 08:04:15;;;;;;;;;;;;;;;;;;5019421;28;20087;-74
2024/01/18 08:06:42;;;;;;;;;;;;;;;;;;5023269;28;20008;-73
2024/01/18 08:09:08;;;;;;;;;;;;;;;;;;5024007;28;20035;-74
2024/01/18 08:11:33;;;;;;;;;;;;;;;;;;5022817;28;20350;-72
2024/01/18 08:13:59;;;;;;;;;;;;;;;;;;5021914;28;19928;-73
2024/01/18 08:16:26;;;;;;;;;;;;;;;;;;5022849;28;20020;-73
2024/01/18 08:18:52;;;;;;;;;;;;;;;;;;5057352;28;19933;-74
2024/01/18 08:21:17;;;;;;;;;;;;;;;;;;5023192;28;20443;-73
2024/01/18 08:23:43;;;;;;;;;;;;;;;;;;5025670;28;19972;-72
2024/01/18 08:26:09;;;;;;;;;;;;;;;;;;5025130;28;19921;-72
2024/01/18 08:28:44;;;;;;;;;;;;;;;;;;5022917;28;20009;-74
2024/01/18 08:31:09;;;;;;;;;;;;;;;;;;5006892;28;20288;-73
2024/01/18 08:33:35;;;;;;;;;;;;;;;;;;5030416;28;19925;-73
2024/01/18 08:36:00;;;;;;;;;;;;;;;;;;5022588;28;19921;-74
2024/01/18 08:38:26;;;;;;;;;;;;;;;;;;5021743;28;19921;-74
2024/01/18 08:40:54;;;;;;;;;;;;;;;;;;5036513;28;19917;-73
2024/01/18 08:43:32;;;;;;;;;;;;;;;;;;5038819;28;19924;-73
2024/01/18 08:45:57;;;;;;;;;;;;;;;;;;5021039;28;19916;-73
2024/01/18 08:48:22;;;;;;;;;;;;;;;;;;5023358;28;20112;-74
2024/01/18 08:50:48;;;;;;;;;;;;;;;;;;5053628;28;19924;-74
2024/01/18 08:53:13;;;;;;;;;;;;;;;;;;5023149;28;19924;-72
2024/01/18 08:55:38;;;;;;;;;;;;;;;;;;5017950;28;19917;-74
2024/01/18 08:58:04;;;;;;;;;;;;;;;;;;5038176;28;20044;-72
2024/01/18 09:00:29;;;;;;;;;;;;;;;;;;5022074;28;19986;-74
2024/01/18 09:02:55;;;;;;;;;;;;;;;;;;5023288;28;20069;-73
2024/01/18 09:05:20;;;;;;;;;;;;;;;;;;5022768;28;19917;-73
2024/01/18 09:07:45;;;;;;;;;;;;;;;;;;5022148;28;19921;-74
2024/01/18 09:10:11;;;;;;;;;;;;;;;;;;5020870;28;20469;-73
2024/01/18 09:12:36;;;;;;;;;;;;;;;;;;5037904;28;19913;-73
2024/01/18 09:15:04;;;;;;;;;;;;;;;;;;5004734;28;19925;-73
2024/01/18 09:17:32;;;;;;;;;;;;;;;;;;5022040;28;19917;-74
2024/01/18 09:19:58;;;;;;;;;;;;;;;;;;5019258;28;19920;-74
2024/01/18 09:22:23;;;;;;;;;;;;;;;;;;5023212;28;19944;-74
2024/01/18 09:24:49;;;;;;;;;;;;;;;;;;5040945;28;19913;-75
2024/01/18 09:27:15;;;;;;;;;;;;;;;;;;5022561;28;19936;-74
2024/01/18 09:29:40;;;;;;;;;;;;;;;;;;5023400;28;20399;-75
2024/01/18 09:32:09;;;;;;;;;;;;;;;;;;5023858;28;20356;-75
2024/01/18 09:34:34;;;;;;;;;;;;;;;;;;5040106;28;19932;-75
2024/01/18 09:37:00;;;;;;;;;;;;;;;;;;5006346;28;19921;-77
2024/01/18 09:39:25;;;;;;;;;;;;;;;;;;5005282;28;19968;-75
2024/01/18 09:41:51;;;;;;;;;;;;;;;;;;5008156;28;19925;-76
2024/01/18 09:44:16;;;;;;;;;;;;;;;;;;5021196;28;19923;-74
2024/01/18 09:49:58;;;;;;;;;;;;;;;;;;5024029;28;20135;-74
2024/01/18 09:52:23;;;;;;;;;;;;;;;;;;5055483;28;19917;-77
2024/01/18 09:54:49;;;;;;;;;;;;;;;;;;5026955;28;20384;-77
2024/01/18 10:00:31;;;;;;;;;;;;;;;;;;5025304;28;19924;-76
2024/01/18 10:02:56;;;;;;;;;;;;;;;;;;5055819;28;19913;-78
2024/01/18 10:05:22;;;;;;;;;;;;;;;;;;5042994;28;19955;-76
2024/01/18 10:07:48;;;;;;;;;;;;;;;;;;5021582;28;20434;-77
2024/01/18 10:10:15;;;;;;;;;;;;;;;;;;5023100;28;20194;-76
2024/01/18 10:12:40;;;;;;;;;;;;;;;;;;5028091;28;19987;-78
2024/01/18 10:15:06;;;;;;;;;;;;;;;;;;5024291;28;20895;-77
2024/01/18 10:17:31;;;;;;;;;;;;;;;;;;5024086;28;19929;-78
2024/01/18 10:19:57;;;;;;;;;;;;;;;;;;5022907;28;20133;-77
2024/01/18 10:22:22;;;;;;;;;;;;;;;;;;5006710;28;20416;-77
2024/01/18 10:24:47;;;;;;;;;;;;;;;;;;5024827;28;19925;-76
2024/01/18 10:27:13;;;;;;;;;;;;;;;;;;5022119;28;19924;-77
2024/01/18 10:29:38;;;;;;;;;;;;;;;;;;5038794;28;19956;-78
2024/01/18 10:32:04;;;;;;;;;;;;;;;;;;5022001;28;19978;-79
2024/01/18 10:34:29;;;;;;;;;;;;;;;;;;5022577;28;19995;-78
2024/01/18 10:36:57;;;;;;;;;;;;;;;;;;5023749;28;20450;-78
2024/01/18 10:39:22;;;;;;;;;;;;;;;;;;5057126;28;19925;-78
2024/01/18 10:41:47;;;;;;;;;;;;;;;;;;5007795;28;19924;-77
2024/01/18 10:44:12;;;;;;;;;;;;;;;;;;5007566;28;19921;-76
2024/01/18 10:46:38;;;;;;;;;;;;;;;;;;5041735;28;20872;-76
2024/01/18 10:49:05;;;;;;;;;;;;;;;;;;5039016;28;20563;-75
2024/01/18 10:51:31;;;;;;;;;;;;;;;;;;5019518;28;19952;-74
2024/01/18 10:53:59;;;;;;;;;;;;;;;;;;5037924;28;19970;-74
2024/01/18 10:56:24;;;;;;;;;;;;;;;;;;5054468;28;19928;-75
2024/01/18 10:58:53;;;;;;;;;;;;;;;;;;5024188;28;19913;-76
2024/01/18 11:01:21;;;;;;;;;;;;;;;;;;5024810;28;19970;-75
2024/01/18 11:03:46;;;;;;;;;;;;;;;;;;5037339;28;20406;-73
2024/01/18 11:06:17;;;;;;;;;;;;;;;;;;5004074;28;20335;-74
2024/01/18 11:08:42;;;;;;;;;;;;;;;;;;5020593;28;19917;-73
2024/01/18 11:11:07;;;;;;;;;;;;;;;;;;5024307;28;20485;-74
2024/01/18 11:13:32;;;;;;;;;;;;;;;;;;5022526;28;19939;-73
2024/01/18 11:16:04;;;;;;;;;;;;;;;;;;5022761;28;20546;-74
2024/01/18 11:18:34;;;;;;;;;;;;;;;;;;5041785;28;19923;-73
2024/01/18 11:21:04;;;;;;;;;;;;;;;;;;5009042;28;19948;-74
2024/01/18 11:23:31;;;;;;;;;;;;;;;;;;5027701;28;19970;-73
2024/01/18 11:25:57;;;;;;;;;;;;;;;;;;5026264;28;19921;-73
2024/01/18 11:28:24;;;;;;;;;;;;;;;;;;5028358;28;20051;-73
2024/01/18 11:30:49;;;;;;;;;;;;;;;;;;5026168;28;20052;-74
2024/01/18 11:33:15;;;;;;;;;;;;;;;;;;5023286;28;19921;-73
2024/01/18 11:35:40;;;;;;;;;;;;;;;;;;5039930;28;19924;-73
2024/01/18 11:38:07;;;;;;;;;;;;;;;;;;5040621;28;22016;-74
2024/01/18 11:40:34;;;;;;;;;;;;;;;;;;5023051;28;19927;-74
2024/01/18 11:43:02;;;;;;;;;;;;;;;;;;5023244;28;19920;-73
2024/01/18 11:45:27;;;;;;;;;;;;;;;;;;5020968;28;19921;-73
2024/01/18 11:47:55;;;;;;;;;;;;;;;;;;5017545;28;20040;-73
2024/01/18 11:50:21;;;;;;;;;;;;;;;;;;5041140;28;19916;-72
2024/01/18 11:52:46;;;;;;;;;;;;;;;;;;5023511;28;19971;-72
2024/01/18 11:55:12;;;;;;;;;;;;;;;;;;5024350;28;19960;-73
2024/01/18 11:57:37;;;;;;;;;;;;;;;;;;5057342;28;20386;-72
2024/01/18 12:00:06;;;;;;;;;;;;;;;;;;5023277;28;19939;-73
2024/01/18 12:02:32;;;;;;;;;;;;;;;;;;5039099;28;19935;-72
2024/01/18 12:04:57;;;;;;;;;;;;;;;;;;5022344;28;19913;-72
2024/01/18 12:07:23;;;;;;;;;;;;;;;;;;5040489;28;19929;-72
2024/01/18 12:09:48;;;;;;;;;;;;;;;;;;5022861;28;19967;-71
2024/01/18 12:12:13;;;;;;;;;;;;;;;;;;5023874;28;19921;-72
2024/01/18 12:14:39;;;;;;;;;;;;;;;;;;5020362;28;20008;-72
2024/01/18 12:17:07;;;;;;;;;;;;;;;;;;5005019;28;20436;-72
2024/01/18 12:19:32;;;;;;;;;;;;;;;;;;5026375;28;19970;-71
2024/01/18 12:21:57;;;;;;;;;;;;;;;;;;5021351;28;19995;-70
2024/01/18 12:24:26;;;;;;;;;;;;;;;;;;5023408;28;20329;-70
2024/01/18 12:26:51;;;;;;;;;;;;;;;;;;5023628;28;19920;-70
2024/01/18 12:29:16;;;;;;;;;;;;;;;;;;5021120;28;20641;-70
2024/01/18 12:31:42;;;;;;;;;;;;;;;;;;5022684;28;20282;-70
2024/01/18 12:34:08;;;;;;;;;;;;;;;;;;5035657;28;19925;-70
2024/01/18 12:36:36;;;;;;;;;;;;;;;;;;5022456;28;20000;-70
2024/01/18 12:39:02;;;;;;;;;;;;;;;;;;5005174;28;19925;-69
2024/01/18 12:41:28;;;;;;;;;;;;;;;;;;5004269;28;19921;-67
2024/01/18 12:43:53;;;;;;;;;;;;;;;;;;5021044;28;20289;-69
2024/01/18 12:46:19;;;;;;;;;;;;;;;;;;5022683;28;19928;-67
2024/01/18 12:48:47;;;;;;;;;;;;;;;;;;5025792;28;19960;-67
2024/01/18 12:51:12;;;;;;;;;;;;;;;;;;5019650;28;20337;-69
2024/01/18 12:53:38;;;;;;;;;;;;;;;;;;5023112;28;19950;-69
2024/01/18 12:56:04;;;;;;;;;;;;;;;;;;5021310;28;19920;-70
2024/01/18 12:58:29;;;;;;;;;;;;;;;;;;5021947;28;20651;-68
2024/01/18 13:00:55;;;;;;;;;;;;;;;;;;5020477;28;19920;-68
2024/01/18 13:03:22;;;;;;;;;;;;;;;;;;5024434;28;19922;-69
2024/01/18 13:05:48;;;;;;;;;;;;;;;;;;5020326;28;19922;-69
2024/01/18 13:08:14;;;;;;;;;;;;;;;;;;5020536;28;19967;-68
2024/01/18 13:10:40;;;;;;;;;;;;;;;;;;5023030;28;20015;-68
2024/01/18 13:13:06;;;;;;;;;;;;;;;;;;5018039;28;19920;-71
2024/01/18 13:18:26;;;;;;;;;;;;;;;;;;5031518;28;19963;-68
2024/01/18 13:20:52;;;;;;;;;;;;;;;;;;5023390;28;20009;-69
2024/01/18 13:23:17;;;;;;;;;;;;;;;;;;5021083;28;19916;-70
2024/01/18 13:25:43;;;;;;;;;;;;;;;;;;5019042;28;20334;-70
2024/01/18 13:28:10;;;;;;;;;;;;;;;;;;5020428;28;19957;-69
2024/01/18 13:30:35;;;;;;;;;;;;;;;;;;5021929;28;19921;-69
2024/01/18 13:33:01;;;;;;;;;;;;;;;;;;5020920;28;20135;-68
2024/01/18 13:35:28;;;;;;;;;;;;;;;;;;5003789;28;19920;-70
2024/01/18 13:37:53;;;;;;;;;;;;;;;;;;5024160;28;20421;-69
2024/01/18 13:40:19;;;;;;;;;;;;;;;;;;5022284;28;20418;-68
2024/01/18 13:42:47;;;;;;;;;;;;;;;;;;5037453;28;19952;-69
2024/01/18 13:45:16;;;;;;;;;;;;;;;;;;5017618;28;20043;-70
2024/01/18 13:47:41;;;;;;;;;;;;;;;;;;5020956;28;19921;-69
2024/01/18 13:50:07;;;;;;;;;;;;;;;;;;5006540;28;19928;-70
2024/01/18 13:52:32;;;;;;;;;;;;;;;;;;5020446;28;19927;-70
2024/01/18 13:54:57;;;;;;;;;;;;;;;;;;5036916;28;20425;-70
2024/01/18 13:57:23;;;;;;;;;;;;;;;;;;5037948;28;19920;-71
2024/01/18 13:59:50;;;;;;;;;;;;;;;;;;5020430;28;19917;-70
2024/01/18 14:02:18;;;;;;;;;;;;;;;;;;5003425;28;19917;-70
2024/01/18 14:04:46;;;;;;;;;;;;;;;;;;5020790;28;20028;-71
2024/01/18 14:07:14;;;;;;;;;;;;;;;;;;5020998;28;19917;-70
2024/01/18 14:09:40;;;;;;;;;;;;;;;;;;5020514;28;19941;-69
2024/01/18 14:12:06;;;;;;;;;;;;;;;;;;5023786;28;19921;-71
2024/01/18 14:14:31;;;;;;;;;;;;;;;;;;5017020;28;20568;-69
2024/01/18 14:16:57;;;;;;;;;;;;;;;;;;5015326;28;20703;-70
2024/01/18 14:19:25;;;;;;;;;;;;;;;;;;5033383;28;20020;-70
2024/01/18 14:21:53;;;;;;;;;;;;;;;;;;5021093;28;19916;-71
2024/01/18 14:27:35;;;;;;;;;;;;;;;;;;5022122;28;19944;-71
2024/01/18 14:33:17;;;;;;;;;;;;;;;;;;5020312;28;19995;-72
2024/01/18 14:38:59;;;;;;;;;;;;;;;;;;5020167;28;19924;-69
2024/01/18 14:41:24;;;;;;;;;;;;;;;;;;5011703;28;19916;-70
2024/01/18 14:43:49;;;;;;;;;;;;;;;;;;5020189;28;20001;-70
2024/01/18 14:46:17;;;;;;;;;;;;;;;;;;5040757;28;19917;-71
2024/01/18 14:48:42;;;;;;;;;;;;;;;;;;5057354;28;20450;-71
2024/01/18 14:51:08;;;;;;;;;;;;;;;;;;5023124;28;20008;-71
2024/01/18 14:53:35;;;;;;;;;;;;;;;;;;5007478;28;19932;-70
2024/01/18 14:56:01;;;;;;;;;;;;;;;;;;5024672;28;20063;-71
2024/01/18 14:58:29;;;;;;;;;;;;;;;;;;5007272;28;20509;-70
2024/01/18 15:04:17;;;;;;;;;;;;;;;;;;5024071;28;19928;-69
2024/01/18 15:06:42;;;;;;;;;;;;;;;;;;5022307;28;19916;-69
2024/01/18 15:09:10;;;;;;;;;;;;;;;;;;5056931;28;19928;-70
2024/01/18 15:11:41;;;;;;;;;;;;;;;;;;5039640;28;19937;-71
2024/01/18 15:14:09;;;;;;;;;;;;;;;;;;5024688;28;20024;-71
2024/01/18 15:16:34;;;;;;;;;;;;;;;;;;5021050;28;19920;-71
2024/01/18 15:19:00;;;;;;;;;;;;;;;;;;5041224;28;19921;-70
2024/01/18 15:21:25;;;;;;;;;;;;;;;;;;5023574;28;19974;-71
2024/01/18 15:23:53;;;;;;;;;;;;;;;;;;5026291;28;19995;-70
2024/01/18 15:26:21;;;;;;;;;;;;;;;;;;5023405;28;20016;-71
2024/01/18 15:28:48;;;;;;;;;;;;;;;;;;5007526;28;19971;-70
2024/01/18 15:31:14;;;;;;;;;;;;;;;;;;5040731;28;20057;-71
2024/01/18 15:33:42;;;;;;;;;;;;;;;;;;5058061;28;19927;-71
2024/01/18 15:36:07;;;;;;;;;;;;;;;;;;5023996;28;20311;-71
2024/01/18 15:38:35;;;;;;;;;;;;;;;;;;5023069;28;20404;-71
2024/01/18 15:41:00;;;;;;;;;;;;;;;;;;5025156;28;20090;-71
2024/01/18 15:43:28;;;;;;;;;;;;;;;;;;5020555;28;20433;-69
2024/01/18 15:45:55;;;;;;;;;;;;;;;;;;5006044;28;19994;-71
2024/01/18 15:48:25;;;;;;;;;;;;;;;;;;5024748;28;20433;-70
2024/01/18 15:50:50;;;;;;;;;;;;;;;;;;5024934;28;19943;-70
2024/01/18 15:53:20;;;;;;;;;;;;;;;;;;5053680;28;19921;-72
2024/01/18 15:55:45;;;;;;;;;;;;;;;;;;5023355;28;20128;-71
2024/01/18 16:01:27;;;;;;;;;;;;;;;;;;5021086;28;19951;-70
2024/01/18 16:03:52;;;;;;;;;;;;;;;;;;5024899;28;19929;-71
2024/01/18 16:06:18;;;;;;;;;;;;;;;;;;5024523;28;20344;-69
2024/01/18 16:08:43;;;;;;;;;;;;;;;;;;5025302;28;20026;-70
2024/01/18 16:11:08;;;;;;;;;;;;;;;;;;5021874;28;19925;-70
2024/01/18 16:13:36;;;;;;;;;;;;;;;;;;5039398;28;19932;-70
2024/01/18 16:16:04;;;;;;;;;;;;;;;;;;5033987;28;19957;-71
2024/01/18 16:18:32;;;;;;;;;;;;;;;;;;5018919;28;19943;-70
2024/01/18 16:20:58;;;;;;;;;;;;;;;;;;5039529;28;19916;-70
2024/01/18 16:23:28;;;;;;;;;;;;;;;;;;5006387;28;19966;-70
2024/01/18 16:25:55;;;;;;;;;;;;;;;;;;5022530;28;20356;-70
2024/01/18 16:28:21;;;;;;;;;;;;;;;;;;5005039;28;19924;-70
2024/01/18 16:30:49;;;;;;;;;;;;;;;;;;5024802;28;19917;-70
2024/01/18 16:33:14;;;;;;;;;;;;;;;;;;5055709;28;19916;-71
2024/01/18 16:35:40;;;;;;;;;;;;;;;;;;5020493;28;20372;-71
2024/01/18 16:41:37;;;;;;;;;;;;;;;;;;5009172;28;19943;-71
2024/01/18 16:44:03;;;;;;;;;;;;;;;;;;5024466;28;19921;-70
2024/01/18 16:46:28;;;;;;;;;;;;;;;;;;5052857;28;20294;-71
2024/01/18 16:48:54;;;;;;;;;;;;;;;;;;5020426;28;20403;-71
2024/01/18 16:51:19;;;;;;;;;;;;;;;;;;5019590;28;19921;-70
2024/01/18 16:53:45;;;;;;;;;;;;;;;;;;5022687;28;19932;-72
2024/01/18 16:56:13;;;;;;;;;;;;;;;;;;5004845;28;20623;-72
2024/01/18 16:58:39;;;;;;;;;;;;;;;;;;5053861;28;21590;-70
2024/01/18 17:01:04;;;;;;;;;;;;;;;;;;5022371;28;20011;-73
2024/01/18 17:03:30;;;;;;;;;;;;;;;;;;5005459;28;20007;-72
2024/01/18 17:05:55;;;;;;;;;;;;;;;;;;5037332;28;19923;-72
2024/01/18 17:11:37;;;;;;;;;;;;;;;;;;5022159;28;20084;-71
2024/01/18 17:14:02;;;;;;;;;;;;;;;;;;5004040;28;19921;-71
2024/01/18 17:16:28;;;;;;;;;;;;;;;;;;5002774;28;20295;-72